YXWW weather

Wee Waa Hospital Helipad
Wee Waa, New South Wales, Australia

Public forecast

Using degrees Celsius for public forecast. Weather courtesy of forecast.io.

Closest aviation weather report (METAR) to Wee Waa Hospital Helipad

Closest report is Narrabri Airport, 20.4 nm (37.8 km) ESE. Retrieved 2020/07/16 02:00 UTC (23 minutes ago):

YNBR 160200Z AUTO 17006KT 120V200 9999 // NCD 14/03 Q1018

Closest aviation forecast (TAF) to Wee Waa Hospital Helipad

Closest forecast is Tamworth Airport, 88.8 nm (164.4 km) SE. Retrieved 2020-07-16 00:36 UTC (2 hours ago):

TAF TAF YSTW 152304Z 1600/1618 03005KT CAVOK FM160300 22010KT 9999 BKN035 FM160900 18005KT 9999 SCT030